Terminal Aerodrome Forecast
Issued by NWS

Home | Current Version | Previous Version | Text Only | Print | Product List | Glossary On
Versions: 1 2 3 4 5 6 7 8 9 10 11 12 13
000
FTUS45 KTFX 100500
TAFHLN
TAF
KHLN 100520Z 1006/1106 27011KT P6SM VCSH SCT090 BKN100
     FM100700 VRB06KT P6SM SCT100
     FM102100 35010KT P6SM SCT060 BKN090=

USA.gov is the U.S. government's official web portal to all federal, state and local government web resources and services.